sensor_id;sensor_type;location;lat;lon;timestamp;pressure;altitude;pressure_sealevel;temperature;humidity
27613;BME280;15036;48.094;-1.690;2023-02-20T00:02:13;102460.44;;;12.73;55.36
27613;BME280;15036;48.094;-1.690;2023-02-20T00:04:39;102454.59;;;12.68;55.29
27613;BME280;15036;48.094;-1.690;2023-02-20T00:07:04;102461.44;;;12.64;55.24
27613;BME280;15036;48.094;-1.690;2023-02-20T00:09:29;102468.13;;;12.61;55.18
27613;BME280;15036;48.094;-1.690;2023-02-20T00:11:55;102462.13;;;12.58;55.20
27613;BME280;15036;48.094;-1.690;2023-02-20T00:14:20;102458.38;;;12.59;55.10
27613;BME280;15036;48.094;-1.690;2023-02-20T00:16:46;102465.72;;;12.58;55.26
27613;BME280;15036;48.094;-1.690;2023-02-20T00:19:12;102464.34;;;12.54;55.58
27613;BME280;15036;48.094;-1.690;2023-02-20T00:21:44;102470.19;;;12.51;55.34
27613;BME280;15036;48.094;-1.690;2023-02-20T00:24:09;102476.84;;;12.49;55.27
27613;BME280;15036;48.094;-1.690;2023-02-20T00:26:34;102479.09;;;12.45;55.52
27613;BME280;15036;48.094;-1.690;2023-02-20T00:28:59;102473.91;;;12.42;54.94
27613;BME280;15036;48.094;-1.690;2023-02-20T00:31:25;102460.59;;;12.39;55.48
27613;BME280;15036;48.094;-1.690;2023-02-20T00:33:50;102467.63;;;12.42;55.15
27613;BME280;15036;48.094;-1.690;2023-02-20T00:36:17;102465.19;;;12.39;55.36
27613;BME280;15036;48.094;-1.690;2023-02-20T00:38:44;102470.47;;;12.32;55.49
27613;BME280;15036;48.094;-1.690;2023-02-20T00:41:10;102469.13;;;12.36;55.52
27613;BME280;15036;48.094;-1.690;2023-02-20T00:43:38;102479.75;;;12.31;55.36
27613;BME280;15036;48.094;-1.690;2023-02-20T00:46:04;102476.50;;;12.28;55.64
27613;BME280;15036;48.094;-1.690;2023-02-20T00:48:29;102481.59;;;12.23;55.56
27613;BME280;15036;48.094;-1.690;2023-02-20T00:50:55;102481.06;;;12.19;55.45
27613;BME280;15036;48.094;-1.690;2023-02-20T00:53:20;102474.03;;;12.16;55.55
27613;BME280;15036;48.094;-1.690;2023-02-20T00:55:45;102478.84;;;12.14;55.47
27613;BME280;15036;48.094;-1.690;2023-02-20T00:58:11;102474.56;;;12.12;55.46
27613;BME280;15036;48.094;-1.690;2023-02-20T01:00:36;102465.97;;;12.07;55.63
27613;BME280;15036;48.094;-1.690;2023-02-20T01:03:01;102454.34;;;12.05;55.19
27613;BME280;15036;48.094;-1.690;2023-02-20T01:05:27;102461.19;;;12.01;55.34
27613;BME280;15036;48.094;-1.690;2023-02-20T01:07:52;102458.25;;;11.94;55.17
27613;BME280;15036;48.094;-1.690;2023-02-20T01:10:18;102465.94;;;11.91;55.42
27613;BME280;15036;48.094;-1.690;2023-02-20T01:12:44;102456.50;;;11.85;55.58
27613;BME280;15036;48.094;-1.690;2023-02-20T01:15:10;102460.94;;;11.78;55.66
27613;BME280;15036;48.094;-1.690;2023-02-20T01:17:36;102462.66;;;11.79;55.22
27613;BME280;15036;48.094;-1.690;2023-02-20T01:20:02;102463.13;;;11.75;55.06
27613;BME280;15036;48.094;-1.690;2023-02-20T01:22:27;102458.19;;;11.70;54.93
27613;BME280;15036;48.094;-1.690;2023-02-20T01:24:52;102458.94;;;11.63;55.30
27613;BME280;15036;48.094;-1.690;2023-02-20T01:27:18;102459.47;;;11.58;55.31
27613;BME280;15036;48.094;-1.690;2023-02-20T01:29:43;102466.09;;;11.56;55.46
27613;BME280;15036;48.094;-1.690;2023-02-20T01:32:12;102471.69;;;11.46;55.32
27613;BME280;15036;48.094;-1.690;2023-02-20T01:34:38;102476.19;;;11.55;55.08
27613;BME280;15036;48.094;-1.690;2023-02-20T01:37:03;102471.34;;;11.49;55.14
27613;BME280;15036;48.094;-1.690;2023-02-20T01:39:29;102464.88;;;11.50;55.23
27613;BME280;15036;48.094;-1.690;2023-02-20T01:42:00;102451.16;;;11.42;55.45
27613;BME280;15036;48.094;-1.690;2023-02-20T01:44:30;102460.75;;;11.46;55.28
27613;BME280;15036;48.094;-1.690;2023-02-20T01:46:57;102471.81;;;11.37;55.23
27613;BME280;15036;48.094;-1.690;2023-02-20T01:52:00;102471.97;;;11.35;55.22
27613;BME280;15036;48.094;-1.690;2023-02-20T01:54:27;102463.06;;;11.33;55.21
27613;BME280;15036;48.094;-1.690;2023-02-20T01:56:55;102452.00;;;11.34;55.22
27613;BME280;15036;48.094;-1.690;2023-02-20T01:59:24;102451.13;;;11.34;55.31
27613;BME280;15036;48.094;-1.690;2023-02-20T02:01:50;102447.69;;;11.32;55.44
27613;BME280;15036;48.094;-1.690;2023-02-20T02:04:16;102461.84;;;11.27;55.43
27613;BME280;15036;48.094;-1.690;2023-02-20T02:06:46;102452.25;;;11.23;55.36
27613;BME280;15036;48.094;-1.690;2023-02-20T02:09:55;102440.97;;;11.18;55.21
27613;BME280;15036;48.094;-1.690;2023-02-20T02:12:19;102440.56;;;11.13;55.14
27613;BME280;15036;48.094;-1.690;2023-02-20T02:14:45;102435.44;;;11.10;55.43
27613;BME280;15036;48.094;-1.690;2023-02-20T02:40:00;102409.34;;;10.90;55.56
27613;BME280;15036;48.094;-1.690;2023-02-20T02:42:47;102402.81;;;10.83;55.46
27613;BME280;15036;48.094;-1.690;2023-02-20T02:45:46;102397.06;;;10.69;55.68
27613;BME280;15036;48.094;-1.690;2023-02-20T02:48:21;102399.47;;;10.72;55.43
27613;BME280;15036;48.094;-1.690;2023-02-20T02:50:52;102394.34;;;10.69;55.36
27613;BME280;15036;48.094;-1.690;2023-02-20T02:53:19;102389.50;;;10.63;55.14
27613;BME280;15036;48.094;-1.690;2023-02-20T02:55:45;102395.09;;;10.53;55.38
27613;BME280;15036;48.094;-1.690;2023-02-20T02:58:12;102398.09;;;10.50;55.39
27613;BME280;15036;48.094;-1.690;2023-02-20T03:00:46;102391.41;;;10.44;55.28
27613;BME280;15036;48.094;-1.690;2023-02-20T03:03:18;102383.38;;;10.43;55.32
27613;BME280;15036;48.094;-1.690;2023-02-20T03:05:56;102379.97;;;10.41;55.20
27613;BME280;15036;48.094;-1.690;2023-02-20T03:08:31;102378.72;;;10.35;55.22
27613;BME280;15036;48.094;-1.690;2023-02-20T03:11:03;102378.88;;;10.34;55.13
27613;BME280;15036;48.094;-1.690;2023-02-20T03:13:33;102374.91;;;10.28;55.17
27613;BME280;15036;48.094;-1.690;2023-02-20T03:16:22;102388.47;;;10.20;55.30
27613;BME280;15036;48.094;-1.690;2023-02-20T03:18:51;102381.47;;;10.18;55.29
27613;BME280;15036;48.094;-1.690;2023-02-20T03:21:21;102379.22;;;10.13;55.25
27613;BME280;15036;48.094;-1.690;2023-02-20T03:23:53;102386.84;;;10.10;55.39
27613;BME280;15036;48.094;-1.690;2023-02-20T03:26:22;102380.78;;;10.06;55.23
27613;BME280;15036;48.094;-1.690;2023-02-20T03:29:18;102378.22;;;10.05;55.10
27613;BME280;15036;48.094;-1.690;2023-02-20T03:31:55;102369.34;;;10.03;55.03
27613;BME280;15036;48.094;-1.690;2023-02-20T03:34:42;102369.66;;;10.00;54.95
27613;BME280;15036;48.094;-1.690;2023-02-20T03:37:26;102357.28;;;9.88;55.18
27613;BME280;15036;48.094;-1.690;2023-02-20T03:40:14;102369.34;;;9.85;55.05
27613;BME280;15036;48.094;-1.690;2023-02-20T03:43:06;102357.34;;;9.78;55.06
27613;BME280;15036;48.094;-1.690;2023-02-20T03:45:51;102346.97;;;9.64;55.10
27613;BME280;15036;48.094;-1.690;2023-02-20T03:51:10;102346.72;;;9.57;54.90
27613;BME280;15036;48.094;-1.690;2023-02-20T03:53:36;102343.63;;;9.52;54.95
27613;BME280;15036;48.094;-1.690;2023-02-20T03:56:04;102345.66;;;9.41;55.21
27613;BME280;15036;48.094;-1.690;2023-02-20T03:58:36;102349.31;;;9.32;55.48
27613;BME280;15036;48.094;-1.690;2023-02-20T04:01:03;102352.59;;;9.35;55.29
27613;BME280;15036;48.094;-1.690;2023-02-20T04:03:32;102345.88;;;9.30;55.27
27613;BME280;15036;48.094;-1.690;2023-02-20T04:06:01;102340.44;;;9.30;55.21
27613;BME280;15036;48.094;-1.690;2023-02-20T04:08:42;102327.13;;;9.27;55.22
27613;BME280;15036;48.094;-1.690;2023-02-20T04:13:40;102326.31;;;9.17;55.48
27613;BME280;15036;48.094;-1.690;2023-02-20T04:16:06;102334.88;;;9.22;55.67
27613;BME280;15036;48.094;-1.690;2023-02-20T04:18:33;102330.91;;;9.16;55.65
27613;BME280;15036;48.094;-1.690;2023-02-20T04:21:01;102315.16;;;9.10;55.54
27613;BME280;15036;48.094;-1.690;2023-02-20T04:23:30;102316.56;;;9.14;55.30
27613;BME280;15036;48.094;-1.690;2023-02-20T04:26:06;102320.06;;;9.07;55.52
27613;BME280;15036;48.094;-1.690;2023-02-20T04:28:33;102328.34;;;9.15;55.22
27613;BME280;15036;48.094;-1.690;2023-02-20T04:30:59;102322.91;;;9.05;55.13
27613;BME280;15036;48.094;-1.690;2023-02-20T04:33:26;102327.59;;;8.95;55.38
27613;BME280;15036;48.094;-1.690;2023-02-20T04:35:52;102327.25;;;8.98;55.10
27613;BME280;15036;48.094;-1.690;2023-02-20T04:38:19;102326.16;;;8.91;55.32
27613;BME280;15036;48.094;-1.690;2023-02-20T04:40:44;102316.56;;;8.87;55.22
27613;BME280;15036;48.094;-1.690;2023-02-20T04:43:09;102327.34;;;8.79;55.28
27613;BME280;15036;48.094;-1.690;2023-02-20T04:45:35;102325.63;;;8.78;55.14
27613;BME280;15036;48.094;-1.690;2023-02-20T04:48:00;102329.00;;;8.90;54.93
27613;BME280;15036;48.094;-1.690;2023-02-20T04:50:33;102325.47;;;8.80;54.81
27613;BME280;15036;48.094;-1.690;2023-02-20T04:52:59;102323.31;;;8.83;54.71
27613;BME280;15036;48.094;-1.690;2023-02-20T04:55:25;102323.22;;;8.75;55.08
27613;BME280;15036;48.094;-1.690;2023-02-20T04:57:51;102329.59;;;8.84;54.93
27613;BME280;15036;48.094;-1.690;2023-02-20T05:00:22;102325.56;;;8.97;54.96
27613;BME280;15036;48.094;-1.690;2023-02-20T05:02:48;102321.53;;;9.01;55.19
27613;BME280;15036;48.094;-1.690;2023-02-20T05:07:44;102321.00;;;9.15;55.97
27613;BME280;15036;48.094;-1.690;2023-02-20T05:10:15;102321.69;;;9.27;56.08
27613;BME280;15036;48.094;-1.690;2023-02-20T05:12:40;102321.91;;;9.33;56.31
27613;BME280;15036;48.094;-1.690;2023-02-20T05:15:06;102327.44;;;9.41;56.73
27613;BME280;15036;48.094;-1.690;2023-02-20T05:17:31;102325.44;;;9.61;56.52
27613;BME280;15036;48.094;-1.690;2023-02-20T05:19:57;102317.44;;;9.77;56.45
27613;BME280;15036;48.094;-1.690;2023-02-20T05:22:22;102325.31;;;9.80;56.64
27613;BME280;15036;48.094;-1.690;2023-02-20T05:24:49;102319.91;;;9.71;57.02
27613;BME280;15036;48.094;-1.690;2023-02-20T05:27:18;102318.06;;;9.71;57.13
27613;BME280;15036;48.094;-1.690;2023-02-20T05:29:48;102316.91;;;9.74;57.13
27613;BME280;15036;48.094;-1.690;2023-02-20T05:32:15;102312.59;;;9.71;57.32
27613;BME280;15036;48.094;-1.690;2023-02-20T05:34:42;102319.16;;;9.78;57.42
27613;BME280;15036;48.094;-1.690;2023-02-20T05:37:08;102302.09;;;9.94;57.26
27613;BME280;15036;48.094;-1.690;2023-02-20T05:39:33;102308.78;;;9.99;57.10
27613;BME280;15036;48.094;-1.690;2023-02-20T05:41:59;102313.63;;;9.88;57.50
27613;BME280;15036;48.094;-1.690;2023-02-20T05:44:24;102322.69;;;9.88;57.40
27613;BME280;15036;48.094;-1.690;2023-02-20T05:46:49;102321.28;;;9.84;57.70
27613;BME280;15036;48.094;-1.690;2023-02-20T05:49:16;102314.09;;;9.83;57.71
27613;BME280;15036;48.094;-1.690;2023-02-20T05:51:42;102312.59;;;10.06;57.43
27613;BME280;15036;48.094;-1.690;2023-02-20T05:54:07;102305.84;;;10.10;57.23
27613;BME280;15036;48.094;-1.690;2023-02-20T05:56:33;102303.97;;;9.93;57.65
27613;BME280;15036;48.094;-1.690;2023-02-20T05:58:59;102306.75;;;10.01;57.53
27613;BME280;15036;48.094;-1.690;2023-02-20T06:01:27;102305.81;;;9.93;57.79
27613;BME280;15036;48.094;-1.690;2023-02-20T06:03:53;102306.53;;;9.95;57.85
27613;BME280;15036;48.094;-1.690;2023-02-20T06:06:19;102305.97;;;9.91;57.95
27613;BME280;15036;48.094;-1.690;2023-02-20T06:08:45;102299.81;;;9.89;57.92
27613;BME280;15036;48.094;-1.690;2023-02-20T06:11:12;102302.56;;;9.89;57.85
27613;BME280;15036;48.094;-1.690;2023-02-20T06:13:41;102304.59;;;9.87;57.90
27613;BME280;15036;48.094;-1.690;2023-02-20T06:16:08;102299.66;;;9.91;57.87
27613;BME280;15036;48.094;-1.690;2023-02-20T06:18:38;102305.75;;;9.85;58.08
27613;BME280;15036;48.094;-1.690;2023-02-20T06:21:08;102321.97;;;9.86;58.02
27613;BME280;15036;48.094;-1.690;2023-02-20T06:23:34;102299.38;;;9.94;57.94
27613;BME280;15036;48.094;-1.690;2023-02-20T06:26:00;102307.75;;;10.00;57.67
27613;BME280;15036;48.094;-1.690;2023-02-20T06:28:25;102307.63;;;10.02;57.56
27613;BME280;15036;48.094;-1.690;2023-02-20T06:30:50;102309.66;;;10.00;57.88
27613;BME280;15036;48.094;-1.690;2023-02-20T06:33:16;102313.91;;;10.02;57.63
27613;BME280;15036;48.094;-1.690;2023-02-20T06:35:41;102309.13;;;9.96;57.54
27613;BME280;15036;48.094;-1.690;2023-02-20T06:38:06;102306.44;;;10.04;57.25
27613;BME280;15036;48.094;-1.690;2023-02-20T06:40:32;102295.59;;;9.95;57.46
27613;BME280;15036;48.094;-1.690;2023-02-20T06:42:57;102298.25;;;9.87;57.64
27613;BME280;15036;48.094;-1.690;2023-02-20T06:45:22;102297.25;;;9.88;57.70
27613;BME280;15036;48.094;-1.690;2023-02-20T06:47:48;102301.94;;;9.95;57.55
27613;BME280;15036;48.094;-1.690;2023-02-20T06:50:13;102303.41;;;9.90;57.61
27613;BME280;15036;48.094;-1.690;2023-02-20T06:52:39;102311.53;;;9.64;57.87
27613;BME280;15036;48.094;-1.690;2023-02-20T06:55:04;102320.88;;;9.79;57.69
27613;BME280;15036;48.094;-1.690;2023-02-20T06:57:31;102327.34;;;9.78;57.74
27613;BME280;15036;48.094;-1.690;2023-02-20T06:59:57;102333.59;;;9.88;57.60
27613;BME280;15036;48.094;-1.690;2023-02-20T07:02:22;102329.53;;;9.92;57.57
27613;BME280;15036;48.094;-1.690;2023-02-20T07:04:48;102321.63;;;10.07;57.50
27613;BME280;15036;48.094;-1.690;2023-02-20T07:07:14;102322.66;;;10.06;57.52
27613;BME280;15036;48.094;-1.690;2023-02-20T07:09:39;102321.91;;;10.13;57.37
27613;BME280;15036;48.094;-1.690;2023-02-20T07:12:05;102320.16;;;10.12;57.39
27613;BME280;15036;48.094;-1.690;2023-02-20T07:14:31;102328.25;;;10.04;57.69
27613;BME280;15036;48.094;-1.690;2023-02-20T07:16:56;102332.97;;;10.12;57.88
27613;BME280;15036;48.094;-1.690;2023-02-20T07:19:21;102333.13;;;10.10;57.77
27613;BME280;15036;48.094;-1.690;2023-02-20T07:21:47;102339.72;;;10.08;58.01
27613;BME280;15036;48.094;-1.690;2023-02-20T07:24:12;102328.13;;;10.23;57.73
27613;BME280;15036;48.094;-1.690;2023-02-20T07:26:38;102338.94;;;10.33;57.52
27613;BME280;15036;48.094;-1.690;2023-02-20T07:29:05;102334.72;;;10.38;57.30
27613;BME280;15036;48.094;-1.690;2023-02-20T07:31:30;102347.03;;;10.42;57.13
27613;BME280;15036;48.094;-1.690;2023-02-20T07:33:56;102344.47;;;10.41;57.18
27613;BME280;15036;48.094;-1.690;2023-02-20T07:36:22;102344.94;;;10.36;57.20
27613;BME280;15036;48.094;-1.690;2023-02-20T07:38:55;102341.28;;;10.45;57.37
27613;BME280;15036;48.094;-1.690;2023-02-20T07:41:23;102342.59;;;10.41;57.41
27613;BME280;15036;48.094;-1.690;2023-02-20T07:43:48;102343.59;;;10.40;57.25
27613;BME280;15036;48.094;-1.690;2023-02-20T07:46:14;102343.13;;;10.45;57.31
27613;BME280;15036;48.094;-1.690;2023-02-20T07:48:39;102350.00;;;10.49;57.18
27613;BME280;15036;48.094;-1.690;2023-02-20T07:51:04;102347.56;;;10.46;57.33
27613;BME280;15036;48.094;-1.690;2023-02-20T07:53:30;102350.94;;;10.66;56.53
27613;BME280;15036;48.094;-1.690;2023-02-20T07:55:55;102359.06;;;10.75;56.42
27613;BME280;15036;48.094;-1.690;2023-02-20T07:58:20;102343.66;;;10.74;56.54
27613;BME280;15036;48.094;-1.690;2023-02-20T08:00:46;102357.81;;;10.70;56.69
27613;BME280;15036;48.094;-1.690;2023-02-20T08:03:11;102354.66;;;10.82;56.37
27613;BME280;15036;48.094;-1.690;2023-02-20T08:05:37;102347.31;;;10.83;56.01
27613;BME280;15036;48.094;-1.690;2023-02-20T08:08:02;102356.16;;;10.77;56.60
27613;BME280;15036;48.094;-1.690;2023-02-20T08:10:29;102352.44;;;10.86;56.45
27613;BME280;15036;48.094;-1.690;2023-02-20T08:12:54;102366.91;;;10.78;56.65
27613;BME280;15036;48.094;-1.690;2023-02-20T08:15:21;102359.25;;;10.82;56.82
27613;BME280;15036;48.094;-1.690;2023-02-20T08:17:47;102356.09;;;10.94;56.73
27613;BME280;15036;48.094;-1.690;2023-02-20T08:20:16;102355.75;;;10.97;56.28
27613;BME280;15036;48.094;-1.690;2023-02-20T08:22:46;102356.34;;;11.09;55.99
27613;BME280;15036;48.094;-1.690;2023-02-20T08:25:12;102357.84;;;11.03;56.16
27613;BME280;15036;48.094;-1.690;2023-02-20T08:27:44;102345.91;;;11.04;56.58
27613;BME280;15036;48.094;-1.690;2023-02-20T08:30:13;102351.66;;;11.01;56.83
27613;BME280;15036;48.094;-1.690;2023-02-20T08:32:39;102347.13;;;11.10;56.50
27613;BME280;15036;48.094;-1.690;2023-02-20T08:35:04;102342.69;;;11.09;56.86
27613;BME280;15036;48.094;-1.690;2023-02-20T08:37:30;102339.28;;;11.15;56.85
27613;BME280;15036;48.094;-1.690;2023-02-20T08:39:55;102342.53;;;11.18;56.66
27613;BME280;15036;48.094;-1.690;2023-02-20T08:42:21;102340.88;;;11.33;56.38
27613;BME280;15036;48.094;-1.690;2023-02-20T08:44:46;102340.38;;;11.30;56.33
27613;BME280;15036;48.094;-1.690;2023-02-20T08:47:12;102343.78;;;11.32;56.71
27613;BME280;15036;48.094;-1.690;2023-02-20T08:49:37;102334.44;;;11.43;56.63
27613;BME280;15036;48.094;-1.690;2023-02-20T08:52:02;102339.59;;;11.54;56.63
27613;BME280;15036;48.094;-1.690;2023-02-20T08:54:30;102340.84;;;11.67;56.67
27613;BME280;15036;48.094;-1.690;2023-02-20T08:56:55;102347.03;;;11.77;56.52
27613;BME280;15036;48.094;-1.690;2023-02-20T08:59:22;102351.16;;;11.81;56.09
27613;BME280;15036;48.094;-1.690;2023-02-20T09:01:47;102351.16;;;11.89;56.10
27613;BME280;15036;48.094;-1.690;2023-02-20T09:04:13;102343.28;;;12.02;56.05
27613;BME280;15036;48.094;-1.690;2023-02-20T09:06:39;102341.94;;;12.06;56.14
27613;BME280;15036;48.094;-1.690;2023-02-20T09:09:05;102334.09;;;12.19;55.56
27613;BME280;15036;48.094;-1.690;2023-02-20T09:11:30;102340.06;;;12.15;55.65
27613;BME280;15036;48.094;-1.690;2023-02-20T09:13:55;102336.28;;;12.24;55.79
27613;BME280;15036;48.094;-1.690;2023-02-20T09:16:22;102335.78;;;12.37;55.63
27613;BME280;15036;48.094;-1.690;2023-02-20T09:18:49;102334.91;;;12.44;55.00
27613;BME280;15036;48.094;-1.690;2023-02-20T09:21:17;102335.59;;;12.54;54.65
27613;BME280;15036;48.094;-1.690;2023-02-20T09:23:43;102330.78;;;12.72;54.40
27613;BME280;15036;48.094;-1.690;2023-02-20T09:26:08;102329.75;;;12.81;54.12
27613;BME280;15036;48.094;-1.690;2023-02-20T09:28:34;102329.06;;;12.79;53.93
27613;BME280;15036;48.094;-1.690;2023-02-20T09:30:59;102333.31;;;12.74;53.60
27613;BME280;15036;48.094;-1.690;2023-02-20T09:33:26;102329.56;;;12.75;53.30
27613;BME280;15036;48.094;-1.690;2023-02-20T09:35:52;102326.47;;;12.70;53.53
27613;BME280;15036;48.094;-1.690;2023-02-20T09:38:19;102334.03;;;12.60;53.96
27613;BME280;15036;48.094;-1.690;2023-02-20T09:40:48;102322.06;;;12.69;53.93
27613;BME280;15036;48.094;-1.690;2023-02-20T09:48:38;102326.28;;;12.87;53.26
27613;BME280;15036;48.094;-1.690;2023-02-20T09:51:13;102316.72;;;12.75;53.21
27613;BME280;15036;48.094;-1.690;2023-02-20T09:53:51;102314.78;;;12.92;53.34
27613;BME280;15036;48.094;-1.690;2023-02-20T09:56:22;102318.38;;;13.00;52.47
27613;BME280;15036;48.094;-1.690;2023-02-20T09:58:56;102323.69;;;12.94;53.07
27613;BME280;15036;48.094;-1.690;2023-02-20T10:01:24;102318.69;;;12.97;52.29
27613;BME280;15036;48.094;-1.690;2023-02-20T10:03:59;102301.72;;;13.02;53.02
27613;BME280;15036;48.094;-1.690;2023-02-20T10:06:29;102309.66;;;12.97;53.27
27613;BME280;15036;48.094;-1.690;2023-02-20T10:08:56;102303.97;;;13.07;53.14
27613;BME280;15036;48.094;-1.690;2023-02-20T10:17:12;102303.22;;;13.51;53.11
27613;BME280;15036;48.094;-1.690;2023-02-20T10:19:48;102297.59;;;13.75;52.02
27613;BME280;15036;48.094;-1.690;2023-02-20T10:22:22;102299.41;;;13.83;51.77
27613;BME280;15036;48.094;-1.690;2023-02-20T10:25:10;102292.97;;;13.76;51.83
27613;BME280;15036;48.094;-1.690;2023-02-20T10:30:22;102277.78;;;13.88;51.03
27613;BME280;15036;48.094;-1.690;2023-02-20T10:32:57;102284.56;;;14.00;50.88
27613;BME280;15036;48.094;-1.690;2023-02-20T10:35:25;102284.41;;;13.93;51.32
27613;BME280;15036;48.094;-1.690;2023-02-20T10:37:57;102279.81;;;14.09;51.40
27613;BME280;15036;48.094;-1.690;2023-02-20T10:43:15;102279.44;;;14.34;51.11
27613;BME280;15036;48.094;-1.690;2023-02-20T10:45:54;102275.19;;;14.46;50.63
27613;BME280;15036;48.094;-1.690;2023-02-20T10:48:27;102280.78;;;14.38;50.79
27613;BME280;15036;48.094;-1.690;2023-02-20T10:51:21;102276.06;;;14.47;50.71
27613;BME280;15036;48.094;-1.690;2023-02-20T10:54:07;102277.47;;;14.43;50.61
27613;BME280;15036;48.094;-1.690;2023-02-20T10:57:17;102275.97;;;14.55;51.09
27613;BME280;15036;48.094;-1.690;2023-02-20T11:01:56;102271.91;;;14.80;50.79
27613;BME280;15036;48.094;-1.690;2023-02-20T11:04:31;102274.97;;;14.85;50.83
27613;BME280;15036;48.094;-1.690;2023-02-20T11:07:01;102270.59;;;15.05;50.91
27613;BME280;15036;48.094;-1.690;2023-02-20T11:09:27;102265.72;;;15.22;50.39
27613;BME280;15036;48.094;-1.690;2023-02-20T11:11:53;102264.56;;;15.31;50.36
27613;BME280;15036;48.094;-1.690;2023-02-20T11:14:33;102258.28;;;15.37;50.09
27613;BME280;15036;48.094;-1.690;2023-02-20T11:17:26;102260.56;;;15.33;49.68
27613;BME280;15036;48.094;-1.690;2023-02-20T11:19:53;102251.28;;;15.34;49.69
27613;BME280;15036;48.094;-1.690;2023-02-20T11:22:43;102251.88;;;15.15;49.86
27613;BME280;15036;48.094;-1.690;2023-02-20T11:25:20;102253.94;;;15.13;50.22
27613;BME280;15036;48.094;-1.690;2023-02-20T11:27:52;102240.69;;;15.02;50.44
27613;BME280;15036;48.094;-1.690;2023-02-20T11:30:25;102246.66;;;15.20;50.33
27613;BME280;15036;48.094;-1.690;2023-02-20T11:33:20;102240.75;;;15.23;50.80
27613;BME280;15036;48.094;-1.690;2023-02-20T11:35:45;102235.13;;;15.46;50.46
27613;BME280;15036;48.094;-1.690;2023-02-20T11:38:16;102233.28;;;15.53;50.53
27613;BME280;15036;48.094;-1.690;2023-02-20T11:40:46;102228.38;;;15.70;50.55
27613;BME280;15036;48.094;-1.690;2023-02-20T11:45:38;102221.56;;;15.87;49.62
27613;BME280;15036;48.094;-1.690;2023-02-20T11:48:18;102207.41;;;15.90;49.73
27613;BME280;15036;48.094;-1.690;2023-02-20T11:50:51;102219.88;;;15.86;49.81
27613;BME280;15036;48.094;-1.690;2023-02-20T11:53:24;102209.88;;;15.85;50.08
27613;BME280;15036;48.094;-1.690;2023-02-20T11:56:12;102212.13;;;15.96;49.76
27613;BME280;15036;48.094;-1.690;2023-02-20T11:58:39;102206.09;;;15.86;49.91
27613;BME280;15036;48.094;-1.690;2023-02-20T12:01:06;102200.38;;;15.87;50.03
27613;BME280;15036;48.094;-1.690;2023-02-20T12:03:34;102196.59;;;15.46;50.43
27613;BME280;15036;48.094;-1.690;2023-02-20T12:06:26;102191.28;;;15.44;50.68
27613;BME280;15036;48.094;-1.690;2023-02-20T12:08:53;102192.84;;;15.53;50.99
27613;BME280;15036;48.094;-1.690;2023-02-20T12:11:24;102186.31;;;15.76;50.66
27613;BME280;15036;48.094;-1.690;2023-02-20T12:13:51;102183.53;;;15.76;50.68
27613;BME280;15036;48.094;-1.690;2023-02-20T12:19:00;102180.44;;;15.85;50.69
27613;BME280;15036;48.094;-1.690;2023-02-20T12:21:53;102176.63;;;15.58;51.24
27613;BME280;15036;48.094;-1.690;2023-02-20T12:27:42;102161.28;;;15.71;51.31
27613;BME280;15036;48.094;-1.690;2023-02-20T12:38:49;102154.09;;;16.59;49.86
27613;BME280;15036;48.094;-1.690;2023-02-20T12:44:25;102141.50;;;16.50;49.79
27613;BME280;15036;48.094;-1.690;2023-02-20T12:55:11;102123.78;;;16.72;50.18
27613;BME280;15036;48.094;-1.690;2023-02-20T12:57:28;102124.50;;;16.87;49.85
27613;BME280;15036;48.094;-1.690;2023-02-20T13:00:06;102114.34;;;16.94;49.45
27613;BME280;15036;48.094;-1.690;2023-02-20T13:02:36;102113.75;;;17.05;49.77
27613;BME280;15036;48.094;-1.690;2023-02-20T13:05:05;102103.56;;;17.12;49.70
27613;BME280;15036;48.094;-1.690;2023-02-20T13:10:16;102098.47;;;17.22;49.17
27613;BME280;15036;48.094;-1.690;2023-02-20T13:12:42;102096.56;;;17.29;48.64
27613;BME280;15036;48.094;-1.690;2023-02-20T13:15:23;102091.66;;;17.12;49.25
27613;BME280;15036;48.094;-1.690;2023-02-20T13:20:59;102078.09;;;17.43;48.66
27613;BME280;15036;48.094;-1.690;2023-02-20T13:23:29;102071.75;;;17.43;48.75
27613;BME280;15036;48.094;-1.690;2023-02-20T13:25:56;102075.72;;;17.07;49.08
27613;BME280;15036;48.094;-1.690;2023-02-20T13:28:38;102067.00;;;16.91;49.14
27613;BME280;15036;48.094;-1.690;2023-02-20T13:33:48;102067.00;;;16.37;50.84
27613;BME280;15036;48.094;-1.690;2023-02-20T13:54:58;102020.78;;;17.52;49.67
27613;BME280;15036;48.094;-1.690;2023-02-20T13:57:29;102007.22;;;17.50;49.28
27613;BME280;15036;48.094;-1.690;2023-02-20T13:59:58;102016.53;;;17.36;49.90
27613;BME280;15036;48.094;-1.690;2023-02-20T14:02:24;102006.13;;;17.58;49.14
27613;BME280;15036;48.094;-1.690;2023-02-20T14:05:01;102003.38;;;17.45;49.34
27613;BME280;15036;48.094;-1.690;2023-02-20T14:07:28;102002.28;;;17.46;49.38
27613;BME280;15036;48.094;-1.690;2023-02-20T14:10:29;102001.88;;;17.62;49.04
27613;BME280;15036;48.094;-1.690;2023-02-20T14:18:17;101993.06;;;18.04;48.37
27613;BME280;15036;48.094;-1.690;2023-02-20T14:20:43;101997.09;;;18.01;48.41
27613;BME280;15036;48.094;-1.690;2023-02-20T14:23:19;101994.59;;;17.93;48.21
27613;BME280;15036;48.094;-1.690;2023-02-20T14:25:52;101993.09;;;17.91;48.54
27613;BME280;15036;48.094;-1.690;2023-02-20T14:28:18;101986.56;;;17.72;48.36
27613;BME280;15036;48.094;-1.690;2023-02-20T14:30:43;101983.97;;;17.84;48.65
27613;BME280;15036;48.094;-1.690;2023-02-20T14:33:19;101979.50;;;17.89;48.33
27613;BME280;15036;48.094;-1.690;2023-02-20T14:36:04;101976.31;;;17.92;48.13
27613;BME280;15036;48.094;-1.690;2023-02-20T14:41:23;101961.00;;;17.90;48.80
27613;BME280;15036;48.094;-1.690;2023-02-20T14:44:00;101968.69;;;17.75;48.86
27613;BME280;15036;48.094;-1.690;2023-02-20T14:46:29;101965.03;;;17.94;48.25
27613;BME280;15036;48.094;-1.690;2023-02-20T14:49:11;101969.53;;;17.82;48.57
27613;BME280;15036;48.094;-1.690;2023-02-20T14:51:37;101955.94;;;17.80;49.12